createdAt,value
2017-10-30T00:00:09.911Z,944.6
2017-10-30T00:01:18.053Z,944.5
2017-10-30T00:02:26.085Z,944.5
2017-10-30T00:03:34.287Z,944.5
2017-10-30T00:04:42.273Z,944.5
2017-10-30T00:05:50.356Z,944.5
2017-10-30T00:06:58.501Z,944.6
2017-10-30T00:08:06.698Z,944.6
2017-10-30T00:09:14.619Z,944.6
2017-10-30T00:10:22.706Z,944.6
2017-10-30T00:11:30.794Z,944.6
2017-10-30T00:12:38.937Z,944.6
2017-10-30T00:13:46.967Z,944.7
2017-10-30T00:14:55.056Z,944.7
2017-10-30T00:16:03.144Z,944.7
2017-10-30T00:17:11.230Z,944.7
2017-10-30T00:18:19.400Z,944.7
2017-10-30T00:19:27.406Z,944.7
2017-10-30T00:20:35.501Z,944.7
2017-10-30T00:21:43.588Z,944.7
2017-10-30T00:22:51.680Z,944.7
2017-10-30T00:23:59.821Z,944.8
2017-10-30T00:25:07.852Z,944.7
2017-10-30T00:26:15.939Z,944.7
2017-10-30T00:27:24.027Z,944.7
2017-10-30T00:28:32.114Z,944.7
2017-10-30T00:29:40.449Z,944.7
2017-10-30T00:30:48.286Z,944.7
2017-10-30T00:31:56.375Z,944.8
2017-10-30T00:33:04.462Z,944.8
2017-10-30T00:34:12.560Z,944.7
2017-10-30T00:35:20.693Z,944.8
2017-10-30T00:36:28.771Z,944.8
2017-10-30T00:37:36.824Z,944.8
2017-10-30T00:38:44.908Z,944.8
2017-10-30T00:39:53.106Z,944.8
2017-10-30T00:41:01.135Z,944.8
2017-10-30T00:42:09.475Z,944.9
2017-10-30T00:43:17.560Z,944.9
2017-10-30T00:44:25.642Z,944.9
2017-10-30T00:45:33.729Z,944.8
2017-10-30T00:46:41.873Z,944.8
2017-10-30T00:47:49.907Z,944.8
2017-10-30T00:48:58.062Z,944.8
2017-10-30T00:50:06.177Z,944.8
2017-10-30T00:51:14.287Z,944.8
2017-10-30T00:52:22.327Z,944.9
2017-10-30T00:53:30.415Z,944.9
2017-10-30T00:54:38.445Z,944.9
2017-10-30T00:55:46.589Z,944.9
2017-10-30T00:56:54.620Z,944.9
2017-10-30T00:58:02.910Z,944.9
2017-10-30T00:59:10.796Z,944.9
2017-10-30T01:00:18.882Z,944.9
2017-10-30T01:01:26.970Z,944.9
2017-10-30T01:02:35.054Z,944.9
2017-10-30T01:03:43.197Z,945.0
2017-10-30T01:04:51.229Z,945.0
2017-10-30T01:05:59.319Z,945.0
2017-10-30T01:07:07.404Z,945.0
2017-10-30T01:08:15.494Z,945.0
2017-10-30T01:09:23.700Z,945.0
2017-10-30T01:10:31.671Z,944.9
2017-10-30T01:11:39.925Z,944.9
2017-10-30T01:12:47.906Z,944.9
2017-10-30T01:13:55.948Z,945.0
2017-10-30T01:15:04.091Z,945.0
2017-10-30T01:16:12.319Z,945.0
2017-10-30T01:17:20.208Z,944.9
2017-10-30T01:18:28.295Z,944.9
2017-10-30T01:19:36.383Z,944.9
2017-10-30T01:20:44.774Z,944.9
2017-10-30T01:21:52.574Z,944.9
2017-10-30T01:23:00.663Z,944.9
2017-10-30T01:24:08.756Z,944.9
2017-10-30T01:25:16.901Z,944.9
2017-10-30T01:26:24.996Z,945.0
2017-10-30T01:27:33.084Z,945.0
2017-10-30T01:28:41.116Z,945.0
2017-10-30T01:29:49.216Z,945.0
2017-10-30T01:30:57.287Z,945.0
2017-10-30T01:32:05.629Z,945.0
2017-10-30T01:33:13.464Z,945.0
2017-10-30T01:34:21.551Z,945.0
2017-10-30T01:35:29.638Z,944.9
2017-10-30T01:36:37.736Z,944.9
2017-10-30T01:37:45.941Z,945.0
2017-10-30T01:38:53.912Z,945.0
2017-10-30T01:40:02.002Z,945.0
2017-10-30T01:41:10.090Z,945.0
2017-10-30T01:42:18.177Z,945.0
2017-10-30T01:43:26.449Z,945.0
2017-10-30T01:44:34.361Z,945.0
2017-10-30T01:45:42.451Z,945.0
2017-10-30T01:46:50.537Z,945.0
2017-10-30T01:47:58.743Z,945.0
2017-10-30T01:49:06.828Z,944.9
2017-10-30T01:50:14.796Z,945.0
2017-10-30T01:51:22.884Z,945.0
2017-10-30T01:52:30.979Z,945.1
2017-10-30T01:53:39.071Z,945.1
2017-10-30T01:54:47.236Z,945.1
2017-10-30T01:55:55.253Z,945.1
2017-10-30T01:57:03.463Z,945.1
2017-10-30T01:58:11.468Z,945.0
2017-10-30T01:59:19.666Z,945.0
2017-10-30T02:00:27.690Z,945.1
2017-10-30T02:01:35.804Z,945.0
2017-10-30T02:02:43.808Z,945.1
2017-10-30T02:03:51.894Z,945.1
2017-10-30T02:04:59.981Z,945.2
2017-10-30T02:06:08.189Z,945.2
2017-10-30T02:07:16.184Z,945.2
2017-10-30T02:08:24.243Z,945.1
2017-10-30T02:09:32.334Z,945.2
2017-10-30T02:10:40.587Z,945.2
2017-10-30T02:11:48.567Z,945.2
2017-10-30T02:12:56.589Z,945.2
2017-10-30T02:14:04.678Z,945.2
2017-10-30T02:15:12.887Z,945.2
2017-10-30T02:16:20.861Z,945.3
2017-10-30T02:17:29.001Z,945.2
2017-10-30T02:18:37.033Z,945.3
2017-10-30T02:19:45.120Z,945.2
2017-10-30T02:20:53.301Z,945.2
2017-10-30T02:22:01.303Z,945.2
2017-10-30T02:23:09.453Z,945.1
2017-10-30T02:24:17.492Z,945.2
2017-10-30T02:25:25.568Z,945.2
2017-10-30T02:26:33.655Z,945.2
2017-10-30T02:27:41.745Z,945.3
2017-10-30T02:28:49.952Z,945.2
2017-10-30T02:29:57.926Z,945.2
2017-10-30T02:31:06.067Z,945.2
2017-10-30T02:32:14.096Z,945.3
2017-10-30T02:33:22.184Z,945.3
2017-10-30T02:34:30.328Z,945.4
2017-10-30T02:35:38.357Z,945.4
2017-10-30T02:36:46.565Z,945.4
2017-10-30T02:37:54.530Z,945.4
2017-10-30T02:39:02.784Z,945.3
2017-10-30T02:40:10.826Z,945.4
2017-10-30T02:41:18.792Z,945.3
2017-10-30T02:42:26.909Z,945.4
2017-10-30T02:43:34.974Z,945.4
2017-10-30T02:44:43.061Z,945.4
2017-10-30T02:45:51.203Z,945.4
2017-10-30T02:46:59.293Z,945.5
2017-10-30T02:48:07.393Z,945.4
2017-10-30T02:49:15.410Z,945.5
2017-10-30T02:50:23.497Z,945.5
2017-10-30T02:51:31.712Z,945.5
2017-10-30T02:52:39.837Z,945.5
2017-10-30T02:53:47.771Z,945.5
2017-10-30T02:54:55.858Z,945.5
2017-10-30T02:56:03.948Z,945.5
2017-10-30T02:57:12.234Z,945.6
2017-10-30T02:58:20.126Z,945.6
2017-10-30T02:59:28.211Z,945.6
2017-10-30T03:00:36.304Z,945.6
2017-10-30T03:01:44.393Z,945.6
2017-10-30T03:02:52.605Z,945.7
2017-10-30T03:04:00.572Z,945.7
2017-10-30T03:05:08.657Z,945.7
2017-10-30T03:06:16.742Z,945.7
2017-10-30T03:07:24.830Z,945.7
2017-10-30T03:08:32.976Z,945.7
2017-10-30T03:09:41.003Z,945.8
2017-10-30T03:10:49.090Z,945.8
2017-10-30T03:11:57.544Z,945.7
2017-10-30T03:13:05.629Z,945.8
2017-10-30T03:14:13.968Z,945.8
2017-10-30T03:15:21.807Z,945.8
2017-10-30T03:16:29.905Z,945.8
2017-10-30T03:17:37.993Z,945.8
2017-10-30T03:18:46.388Z,945.8
2017-10-30T03:19:54.223Z,945.8
2017-10-30T03:21:02.256Z,945.8
2017-10-30T03:22:10.342Z,945.9
2017-10-30T03:23:18.624Z,945.9
2017-10-30T03:24:26.520Z,945.9
2017-10-30T03:25:34.661Z,945.9
2017-10-30T03:26:42.690Z,945.9
2017-10-30T03:27:50.856Z,945.9
2017-10-30T03:28:58.908Z,945.9
2017-10-30T03:30:06.954Z,945.9
2017-10-30T03:31:15.096Z,945.9
2017-10-30T03:32:23.339Z,946.0
2017-10-30T03:33:31.217Z,946.0
2017-10-30T03:34:39.470Z,945.9
2017-10-30T03:35:47.389Z,946.0
2017-10-30T03:36:55.533Z,946.0
2017-10-30T03:38:03.587Z,946.0
2017-10-30T03:39:11.656Z,946.0
2017-10-30T03:40:19.738Z,946.0
2017-10-30T03:41:27.838Z,946.0
2017-10-30T03:42:36.042Z,946.0
2017-10-30T03:43:44.000Z,946.0
2017-10-30T03:44:52.090Z,946.0
2017-10-30T03:46:00.173Z,946.1
2017-10-30T03:47:08.267Z,946.0
2017-10-30T03:48:16.404Z,946.0
2017-10-30T03:49:24.445Z,946.0
2017-10-30T03:50:32.802Z,946.0
2017-10-30T03:51:40.753Z,946.0
2017-10-30T03:52:48.719Z,946.0
2017-10-30T03:53:56.859Z,946.0
2017-10-30T03:55:04.906Z,946.1
2017-10-30T03:56:12.982Z,946.0
2017-10-30T03:57:21.068Z,946.0
2017-10-30T03:58:29.168Z,946.1
2017-10-30T03:59:37.522Z,946.1
2017-10-30T04:00:45.416Z,946.1
2017-10-30T04:01:53.446Z,946.1
2017-10-30T04:03:01.531Z,946.2
2017-10-30T04:04:09.751Z,946.2
2017-10-30T04:05:17.808Z,946.2
2017-10-30T04:06:25.916Z,946.2
2017-10-30T04:07:33.880Z,946.2
2017-10-30T04:08:41.966Z,946.2
2017-10-30T04:09:50.201Z,946.2
2017-10-30T04:10:58.200Z,946.2
2017-10-30T04:12:06.229Z,946.2
2017-10-30T04:13:14.317Z,946.3
2017-10-30T04:14:22.479Z,946.3
2017-10-30T04:15:30.499Z,946.3
2017-10-30T04:16:38.636Z,946.3
2017-10-30T04:17:46.665Z,946.2
2017-10-30T04:18:54.812Z,946.3
2017-10-30T04:20:02.844Z,946.2
2017-10-30T04:21:10.928Z,946.2
2017-10-30T04:22:19.142Z,946.3
2017-10-30T04:23:27.263Z,946.2
2017-10-30T04:24:35.192Z,946.3
2017-10-30T04:25:43.277Z,946.2
2017-10-30T04:26:51.383Z,946.2
2017-10-30T04:27:59.541Z,946.3
2017-10-30T04:29:07.561Z,946.2
2017-10-30T04:30:15.647Z,946.2
2017-10-30T04:31:23.736Z,946.2
2017-10-30T04:32:31.839Z,946.2
2017-10-30T04:33:39.974Z,946.2
2017-10-30T04:34:48.005Z,946.2
2017-10-30T04:35:56.101Z,946.2
2017-10-30T04:37:04.182Z,946.2
2017-10-30T04:38:12.389Z,946.2
2017-10-30T04:39:20.427Z,946.2
2017-10-30T04:40:28.468Z,946.2
2017-10-30T04:41:36.561Z,946.2
2017-10-30T04:42:44.642Z,946.2
2017-10-30T04:43:52.725Z,946.2
2017-10-30T04:45:00.976Z,946.2
2017-10-30T04:46:08.923Z,946.2
2017-10-30T04:47:16.989Z,946.2
2017-10-30T04:48:25.077Z,946.2
2017-10-30T04:49:33.164Z,946.2
2017-10-30T04:50:41.462Z,946.2
2017-10-30T04:51:49.346Z,946.2
2017-10-30T04:52:57.425Z,946.3
2017-10-30T04:54:05.569Z,946.3
2017-10-30T04:55:13.785Z,946.3
2017-10-30T04:56:21.810Z,946.3
2017-10-30T04:57:29.775Z,946.2
2017-10-30T04:58:37.864Z,946.2
2017-10-30T04:59:46.130Z,946.2
2017-10-30T05:00:54.057Z,946.3
2017-10-30T05:02:02.188Z,946.3
2017-10-30T05:03:10.213Z,946.3
2017-10-30T05:04:18.298Z,946.3
2017-10-30T05:05:26.401Z,946.3
2017-10-30T05:06:34.476Z,946.2
2017-10-30T05:07:42.617Z,946.2
2017-10-30T05:08:50.654Z,946.3
2017-10-30T05:09:58.795Z,946.3
2017-10-30T05:11:06.825Z,946.3
2017-10-30T05:12:14.913Z,946.4
2017-10-30T05:13:23.132Z,946.4
2017-10-30T05:14:31.084Z,946.4
2017-10-30T05:15:39.172Z,946.5
2017-10-30T05:16:47.261Z,946.4
2017-10-30T05:17:55.351Z,946.5
2017-10-30T05:19:03.493Z,946.5
2017-10-30T05:20:11.524Z,946.4
2017-10-30T05:21:19.624Z,946.4
2017-10-30T05:22:27.703Z,946.4
2017-10-30T05:23:35.790Z,946.4
2017-10-30T05:24:43.998Z,946.5
2017-10-30T05:25:52.021Z,946.5
2017-10-30T05:27:00.051Z,946.5
2017-10-30T05:28:08.339Z,946.5
2017-10-30T05:29:16.234Z,946.6
2017-10-30T05:30:24.373Z,946.6
2017-10-30T05:31:32.415Z,946.6
2017-10-30T05:32:40.506Z,946.6
2017-10-30T05:33:48.597Z,946.6
2017-10-30T05:34:56.678Z,946.6
2017-10-30T05:36:04.821Z,946.7
2017-10-30T05:37:12.852Z,946.7
2017-10-30T05:38:20.937Z,946.7
2017-10-30T05:39:29.032Z,946.7
2017-10-30T05:40:37.128Z,946.7
2017-10-30T05:41:45.379Z,946.6
2017-10-30T05:42:53.314Z,946.7
2017-10-30T05:44:01.386Z,946.7
2017-10-30T05:45:09.472Z,946.7
2017-10-30T05:46:17.896Z,946.7
2017-10-30T05:47:26.036Z,946.8
2017-10-30T05:48:34.084Z,946.7
2017-10-30T05:49:42.158Z,946.7
2017-10-30T05:50:50.259Z,946.7
2017-10-30T05:51:58.333Z,946.7
2017-10-30T05:53:06.540Z,946.8
2017-10-30T05:54:14.517Z,946.8
2017-10-30T05:55:22.607Z,946.8
2017-10-30T05:56:30.695Z,946.7
2017-10-30T05:57:38.839Z,946.7
2017-10-30T05:58:46.989Z,946.7
2017-10-30T05:59:54.959Z,946.7
2017-10-30T06:01:03.050Z,946.7
2017-10-30T06:02:11.131Z,946.7
2017-10-30T06:03:19.389Z,946.8
2017-10-30T06:04:27.482Z,946.8
2017-10-30T06:05:35.454Z,946.8
2017-10-30T06:06:43.536Z,946.9
2017-10-30T06:07:51.740Z,946.9
2017-10-30T06:08:59.708Z,946.9
2017-10-30T06:10:07.858Z,946.9
2017-10-30T06:11:15.884Z,946.9
2017-10-30T06:12:24.085Z,946.9
2017-10-30T06:13:32.185Z,946.9
2017-10-30T06:14:40.150Z,946.9
2017-10-30T06:15:48.292Z,946.9
2017-10-30T06:16:56.463Z,947.0
2017-10-30T06:18:04.408Z,947.0
2017-10-30T06:19:12.510Z,946.9
2017-10-30T06:20:21.067Z,946.9
2017-10-30T06:21:29.149Z,946.9
2017-10-30T06:22:37.116Z,946.9
2017-10-30T06:23:45.201Z,946.9
2017-10-30T06:24:53.286Z,947.0
2017-10-30T06:26:01.372Z,947.0
2017-10-30T06:27:09.611Z,947.0
2017-10-30T06:28:17.733Z,947.1
2017-10-30T06:29:25.793Z,947.1
2017-10-30T06:30:33.722Z,947.2
2017-10-30T06:31:41.809Z,947.2
2017-10-30T06:32:49.960Z,947.2
2017-10-30T06:33:58.186Z,947.2
2017-10-30T06:35:06.100Z,947.2
2017-10-30T06:36:14.177Z,947.2
2017-10-30T06:37:22.266Z,947.2
2017-10-30T06:38:30.500Z,947.2
2017-10-30T06:39:38.440Z,947.3
2017-10-30T06:40:46.527Z,947.3
2017-10-30T06:41:54.653Z,947.3
2017-10-30T06:43:02.793Z,947.3
2017-10-30T06:44:10.907Z,947.3
2017-10-30T06:45:18.940Z,947.3
2017-10-30T06:46:26.973Z,947.3
2017-10-30T06:47:35.148Z,947.4
2017-10-30T06:48:43.144Z,947.4
2017-10-30T06:49:51.286Z,947.4
2017-10-30T06:50:59.322Z,947.4
2017-10-30T06:52:07.501Z,947.4
2017-10-30T06:53:15.634Z,947.4
2017-10-30T06:54:23.579Z,947.4
2017-10-30T06:55:31.787Z,947.4
2017-10-30T06:56:39.831Z,947.4
2017-10-30T06:57:47.840Z,947.4
2017-10-30T06:58:55.926Z,947.4
2017-10-30T07:00:04.013Z,947.4
2017-10-30T07:01:12.331Z,947.4
2017-10-30T07:02:20.227Z,947.4
2017-10-30T07:03:28.274Z,947.5
2017-10-30T07:04:36.362Z,947.5
2017-10-30T07:05:44.449Z,947.5
2017-10-30T07:06:52.718Z,947.5
2017-10-30T07:08:00.622Z,947.5
2017-10-30T07:09:08.709Z,947.5
2017-10-30T07:10:16.803Z,947.5
2017-10-30T07:11:24.884Z,947.5
2017-10-30T07:12:33.027Z,947.5
2017-10-30T07:13:41.056Z,947.6
2017-10-30T07:14:49.256Z,947.6
2017-10-30T07:15:57.254Z,947.6
2017-10-30T07:17:05.436Z,947.6
2017-10-30T07:18:13.470Z,947.7
2017-10-30T07:19:21.502Z,947.6
2017-10-30T07:20:29.590Z,947.6
2017-10-30T07:21:37.675Z,947.6
2017-10-30T07:22:45.763Z,947.6
2017-10-30T07:23:53.906Z,947.6
2017-10-30T07:25:01.947Z,947.7
2017-10-30T07:26:10.026Z,947.7
2017-10-30T07:27:18.106Z,947.8
2017-10-30T07:28:26.573Z,947.8
2017-10-30T07:29:34.511Z,947.8
2017-10-30T07:30:42.546Z,947.8
2017-10-30T07:31:50.656Z,947.8
2017-10-30T07:32:59.407Z,947.8
2017-10-30T07:34:06.798Z,947.8
2017-10-30T07:35:14.941Z,947.8
2017-10-30T07:36:22.972Z,947.8
2017-10-30T07:37:31.255Z,947.8
2017-10-30T07:38:39.145Z,947.8
2017-10-30T07:39:47.230Z,947.8
2017-10-30T07:40:55.374Z,947.8
2017-10-30T07:42:03.407Z,947.8
2017-10-30T07:43:11.534Z,947.8
2017-10-30T07:44:19.583Z,947.8
2017-10-30T07:45:27.667Z,947.8
2017-10-30T07:46:35.808Z,947.9
2017-10-30T07:47:43.838Z,948.0
2017-10-30T07:48:52.045Z,948.0
2017-10-30T07:50:00.013Z,948.0
2017-10-30T07:51:08.273Z,948.0
2017-10-30T07:52:17.974Z,947.9
2017-10-30T07:53:24.298Z,947.9
2017-10-30T07:54:32.418Z,948.0
2017-10-30T07:55:40.756Z,948.0
2017-10-30T07:56:48.778Z,947.9
2017-10-30T07:57:56.922Z,948.0
2017-10-30T07:59:04.952Z,948.0
2017-10-30T08:00:13.038Z,948.0
2017-10-30T08:01:21.126Z,948.0
2017-10-30T08:02:29.213Z,948.0
2017-10-30T08:03:37.628Z,948.0
2017-10-30T08:04:45.563Z,948.0
2017-10-30T08:05:53.506Z,948.0
2017-10-30T08:07:01.557Z,948.0
2017-10-30T08:08:09.649Z,948.0
2017-10-30T08:09:17.802Z,948.0
2017-10-30T08:10:25.832Z,948.1
2017-10-30T08:11:33.921Z,948.0
2017-10-30T08:12:42.010Z,948.1
2017-10-30T08:13:50.107Z,948.0
2017-10-30T08:14:58.233Z,948.1
2017-10-30T08:16:06.272Z,948.1
2017-10-30T08:17:14.350Z,948.1
2017-10-30T08:18:22.472Z,948.1
2017-10-30T08:19:30.837Z,948.1
2017-10-30T08:20:38.980Z,948.1
2017-10-30T08:21:47.071Z,948.1
2017-10-30T08:22:55.094Z,948.1
2017-10-30T08:24:03.185Z,948.1
2017-10-30T08:25:11.274Z,948.1
2017-10-30T08:26:19.555Z,948.1
2017-10-30T08:27:27.442Z,948.0
2017-10-30T08:28:35.529Z,948.0
2017-10-30T08:29:43.614Z,948.0
2017-10-30T08:30:51.701Z,948.0
2017-10-30T08:31:59.848Z,948.0
2017-10-30T08:33:07.872Z,948.1
2017-10-30T08:34:15.959Z,948.1
2017-10-30T08:35:24.046Z,948.1
2017-10-30T08:36:32.199Z,948.1
2017-10-30T08:37:40.277Z,948.1
2017-10-30T08:38:48.307Z,948.1
2017-10-30T08:39:56.390Z,948.1
2017-10-30T08:41:04.477Z,948.1
2017-10-30T08:42:12.560Z,948.1
2017-10-30T08:43:20.703Z,948.0
2017-10-30T08:44:28.742Z,948.0
2017-10-30T08:45:36.824Z,948.0
2017-10-30T08:46:44.906Z,948.0
2017-10-30T08:47:52.994Z,948.0
2017-10-30T08:49:01.137Z,948.0
2017-10-30T08:50:09.168Z,948.0
2017-10-30T08:51:17.256Z,948.0
2017-10-30T08:52:25.395Z,948.0
2017-10-30T08:53:33.425Z,948.0
2017-10-30T08:54:41.633Z,948.0
2017-10-30T08:55:49.608Z,948.0
2017-10-30T08:56:57.695Z,948.0
2017-10-30T08:58:05.778Z,948.0
2017-10-30T08:59:13.890Z,948.0
2017-10-30T09:00:22.007Z,948.0
2017-10-30T09:01:30.057Z,948.1
2017-10-30T09:02:38.130Z,948.1
2017-10-30T09:03:46.233Z,948.1
2017-10-30T09:04:54.304Z,948.1
2017-10-30T09:06:02.445Z,948.1
2017-10-30T09:07:10.477Z,948.1
2017-10-30T09:08:18.720Z,948.1
2017-10-30T09:09:26.699Z,948.1
2017-10-30T09:10:34.742Z,948.1
2017-10-30T09:11:42.877Z,948.1
2017-10-30T09:12:50.906Z,948.2
2017-10-30T09:13:58.993Z,948.1
2017-10-30T09:15:07.081Z,948.2
2017-10-30T09:16:15.177Z,948.2
2017-10-30T09:17:23.383Z,948.2
2017-10-30T09:18:31.353Z,948.2
2017-10-30T09:19:39.440Z,948.2
2017-10-30T09:20:47.523Z,948.2
2017-10-30T09:21:55.609Z,948.2
2017-10-30T09:23:03.751Z,948.2
2017-10-30T09:24:11.904Z,948.3
2017-10-30T09:25:19.880Z,948.3
2017-10-30T09:26:28.146Z,948.3
2017-10-30T09:27:36.052Z,948.3
2017-10-30T09:28:44.196Z,948.3
2017-10-30T09:29:52.234Z,948.3
2017-10-30T09:31:00.480Z,948.3
2017-10-30T09:32:08.409Z,948.3
2017-10-30T09:33:16.496Z,948.3
2017-10-30T09:34:24.659Z,948.3
2017-10-30T09:35:33.152Z,948.3
2017-10-30T09:36:41.240Z,948.3
2017-10-30T09:37:49.324Z,948.3
2017-10-30T09:38:57.436Z,948.4
2017-10-30T09:40:05.553Z,948.4
2017-10-30T09:41:13.584Z,948.4
2017-10-30T09:42:21.678Z,948.4
2017-10-30T09:43:29.757Z,948.4
2017-10-30T09:44:37.846Z,948.5
2017-10-30T09:45:46.182Z,948.4
2017-10-30T09:46:54.029Z,948.4
2017-10-30T09:48:02.267Z,948.5
2017-10-30T09:49:10.206Z,948.5
2017-10-30T09:50:18.290Z,948.5
2017-10-30T09:51:26.432Z,948.5
2017-10-30T09:52:34.470Z,948.5
2017-10-30T09:53:42.549Z,948.5
2017-10-30T09:54:51.053Z,948.5
2017-10-30T09:55:58.778Z,948.5
2017-10-30T09:57:06.864Z,948.6
2017-10-30T09:58:14.924Z,948.5
2017-10-30T09:59:23.012Z,948.5
2017-10-30T10:00:31.094Z,948.6
2017-10-30T10:01:39.202Z,948.6
2017-10-30T10:02:47.353Z,948.5
2017-10-30T10:03:55.335Z,948.6
2017-10-30T10:05:03.422Z,948.6
2017-10-30T10:06:11.618Z,948.5
2017-10-30T10:07:19.596Z,948.6
2017-10-30T10:08:27.740Z,948.5
2017-10-30T10:09:35.771Z,948.5
2017-10-30T10:10:43.857Z,948.5
2017-10-30T10:11:51.997Z,948.5
2017-10-30T10:13:00.028Z,948.5
2017-10-30T10:14:08.172Z,948.5
2017-10-30T10:15:16.250Z,948.5
2017-10-30T10:16:24.290Z,948.5
2017-10-30T10:17:32.378Z,948.5
2017-10-30T10:18:40.478Z,948.5
2017-10-30T10:19:48.994Z,948.5
2017-10-30T10:20:56.761Z,948.5
2017-10-30T10:22:04.749Z,948.5
2017-10-30T10:23:12.837Z,948.5
2017-10-30T10:24:20.927Z,948.5
2017-10-30T10:25:29.137Z,948.5
2017-10-30T10:26:37.093Z,948.5
2017-10-30T10:27:45.236Z,948.5
2017-10-30T10:28:53.269Z,948.5
2017-10-30T10:30:01.496Z,948.6
2017-10-30T10:31:09.562Z,948.6
2017-10-30T10:32:17.531Z,948.6
2017-10-30T10:33:25.616Z,948.5
2017-10-30T10:34:33.700Z,948.6
2017-10-30T10:35:41.790Z,948.6
2017-10-30T10:36:49.928Z,948.6
2017-10-30T10:37:57.962Z,948.7
2017-10-30T10:39:06.045Z,948.6
2017-10-30T10:40:14.135Z,948.6
2017-10-30T10:41:22.219Z,948.6
2017-10-30T10:42:30.554Z,948.6
2017-10-30T10:43:38.449Z,948.6
2017-10-30T10:44:46.487Z,948.6
2017-10-30T10:45:54.567Z,948.6
2017-10-30T10:47:02.654Z,948.6
2017-10-30T10:48:11.445Z,948.6
2017-10-30T10:49:18.834Z,948.6
2017-10-30T10:50:26.922Z,948.6
2017-10-30T10:51:35.007Z,948.6
2017-10-30T10:52:43.175Z,948.6
2017-10-30T10:53:51.236Z,948.6
2017-10-30T10:54:59.265Z,948.6
2017-10-30T10:56:07.354Z,948.6
2017-10-30T10:57:15.438Z,948.6
2017-10-30T10:58:23.529Z,948.5
2017-10-30T10:59:31.669Z,948.6
2017-10-30T11:00:39.704Z,948.6
2017-10-30T11:01:47.786Z,948.6
2017-10-30T11:02:55.871Z,948.6
2017-10-30T11:04:03.962Z,948.6
2017-10-30T11:05:12.114Z,948.6
2017-10-30T11:06:20.266Z,948.6
2017-10-30T11:07:28.216Z,948.6
2017-10-30T11:08:36.307Z,948.6
2017-10-30T11:09:44.392Z,948.6
2017-10-30T11:10:52.535Z,948.6
2017-10-30T11:12:00.565Z,948.6
2017-10-30T11:13:08.653Z,948.6
2017-10-30T11:14:16.738Z,948.6
2017-10-30T11:15:24.903Z,948.6
2017-10-30T11:16:33.201Z,948.5
2017-10-30T11:17:41.036Z,948.6
2017-10-30T11:18:49.129Z,948.6
2017-10-30T11:19:57.219Z,948.5
2017-10-30T11:21:05.309Z,948.6
2017-10-30T11:22:13.931Z,948.6
2017-10-30T11:23:21.479Z,948.6
2017-10-30T11:24:29.725Z,948.6
2017-10-30T11:25:37.651Z,948.6
2017-10-30T11:26:45.736Z,948.6
2017-10-30T11:27:53.910Z,948.6
2017-10-30T11:29:02.081Z,948.6
2017-10-30T11:30:09.998Z,948.6
2017-10-30T11:31:18.143Z,948.6
2017-10-30T11:32:26.184Z,948.6
2017-10-30T11:33:34.330Z,948.6
2017-10-30T11:34:42.357Z,948.6
2017-10-30T11:35:50.439Z,948.6
2017-10-30T11:36:58.533Z,948.6
2017-10-30T11:38:06.619Z,948.6
2017-10-30T11:39:15.058Z,948.5
2017-10-30T11:40:22.904Z,948.5
2017-10-30T11:41:30.881Z,948.6
2017-10-30T11:42:39.133Z,948.6
2017-10-30T11:43:47.072Z,948.6
2017-10-30T11:44:55.319Z,948.6
2017-10-30T11:46:03.352Z,948.6
2017-10-30T11:47:11.389Z,948.5
2017-10-30T11:48:19.420Z,948.5
2017-10-30T11:49:27.507Z,948.5
2017-10-30T11:50:35.649Z,948.5
2017-10-30T11:51:43.882Z,948.5
2017-10-30T11:52:51.771Z,948.5
2017-10-30T11:53:59.854Z,948.5
2017-10-30T11:55:07.942Z,948.5
2017-10-30T11:56:16.558Z,948.5
2017-10-30T11:57:24.233Z,948.5
2017-10-30T11:58:32.211Z,948.5
2017-10-30T11:59:40.306Z,948.5
2017-10-30T12:00:48.394Z,948.5
2017-10-30T12:01:56.587Z,948.5
2017-10-30T12:03:04.625Z,948.5
2017-10-30T12:04:12.794Z,948.5
2017-10-30T12:05:20.856Z,948.5
2017-10-30T12:06:28.827Z,948.5
2017-10-30T12:07:37.047Z,948.5
2017-10-30T12:08:45.313Z,948.5
2017-10-30T12:09:53.284Z,948.5
2017-10-30T12:11:01.217Z,948.5
2017-10-30T12:12:09.276Z,948.5
2017-10-30T12:13:17.522Z,948.5
2017-10-30T12:14:25.659Z,948.5
2017-10-30T12:15:33.637Z,948.5
2017-10-30T12:16:41.728Z,948.5
2017-10-30T12:17:49.814Z,948.5
2017-10-30T12:18:57.957Z,948.5
2017-10-30T12:20:05.998Z,948.5
2017-10-30T12:21:14.083Z,948.5
2017-10-30T12:22:22.169Z,948.5
2017-10-30T12:23:30.440Z,948.5
2017-10-30T12:24:38.399Z,948.5
2017-10-30T12:25:46.427Z,948.5
2017-10-30T12:26:54.516Z,948.5
2017-10-30T12:28:02.602Z,948.6
2017-10-30T12:29:10.708Z,948.6
2017-10-30T12:30:18.850Z,948.5
2017-10-30T12:31:26.882Z,948.5
2017-10-30T12:32:34.975Z,948.5
2017-10-30T12:33:43.065Z,948.5
2017-10-30T12:34:51.201Z,948.5
2017-10-30T12:35:59.352Z,948.5
2017-10-30T12:37:07.318Z,948.5
2017-10-30T12:38:15.408Z,948.5
2017-10-30T12:39:23.493Z,948.5
2017-10-30T12:40:31.578Z,948.5
2017-10-30T12:41:39.723Z,948.5
2017-10-30T12:42:47.752Z,948.5
2017-10-30T12:43:55.842Z,948.5
2017-10-30T12:45:03.927Z,948.5
2017-10-30T12:46:12.097Z,948.5
2017-10-30T12:47:20.159Z,948.5
2017-10-30T12:48:28.186Z,948.5
2017-10-30T12:49:36.290Z,948.5
2017-10-30T12:50:44.418Z,948.5
2017-10-30T12:51:52.449Z,948.5
2017-10-30T12:53:00.594Z,948.5
2017-10-30T12:54:08.625Z,948.4
2017-10-30T12:55:16.710Z,948.4
2017-10-30T12:56:24.799Z,948.5
2017-10-30T12:57:32.889Z,948.5
2017-10-30T12:58:41.093Z,948.6
2017-10-30T12:59:49.062Z,948.6
2017-10-30T13:00:57.159Z,948.6
2017-10-30T13:02:05.247Z,948.5
2017-10-30T13:03:13.332Z,948.5
2017-10-30T13:04:21.473Z,948.5
2017-10-30T13:05:29.524Z,948.5
2017-10-30T13:06:37.648Z,948.5
2017-10-30T13:07:45.790Z,948.5
2017-10-30T13:08:53.769Z,948.4
2017-10-30T13:10:02.023Z,948.5
2017-10-30T13:11:09.941Z,948.5
2017-10-30T13:12:18.027Z,948.5
2017-10-30T13:13:26.118Z,948.5
2017-10-30T13:14:34.210Z,948.6
2017-10-30T13:15:42.355Z,948.6
2017-10-30T13:16:50.383Z,948.6
2017-10-30T13:17:58.470Z,948.5
2017-10-30T13:19:06.730Z,948.5
2017-10-30T13:20:14.652Z,948.6
2017-10-30T13:21:22.796Z,948.6
2017-10-30T13:22:30.885Z,948.6
2017-10-30T13:23:39.075Z,948.6
2017-10-30T13:24:47.143Z,948.6
2017-10-30T13:25:55.082Z,948.6
2017-10-30T13:27:03.290Z,948.6
2017-10-30T13:28:11.428Z,948.6
2017-10-30T13:29:19.346Z,948.6
2017-10-30T13:30:27.684Z,948.6
2017-10-30T13:31:35.519Z,948.6
2017-10-30T13:32:43.668Z,948.6
2017-10-30T13:33:51.692Z,948.6
2017-10-30T13:34:59.788Z,948.6
2017-10-30T13:36:07.880Z,948.6
2017-10-30T13:37:15.961Z,948.6
2017-10-30T13:38:24.234Z,948.6
2017-10-30T13:39:32.137Z,948.6
2017-10-30T13:40:40.224Z,948.6
2017-10-30T13:41:48.499Z,948.6
2017-10-30T13:42:56.413Z,948.7
2017-10-30T13:44:04.626Z,948.6
2017-10-30T13:45:12.588Z,948.7
2017-10-30T13:46:20.675Z,948.7
2017-10-30T13:47:28.787Z,948.7
2017-10-30T13:48:36.874Z,948.7
2017-10-30T13:49:45.016Z,948.7
2017-10-30T13:50:53.050Z,948.7
2017-10-30T13:52:01.138Z,948.8
2017-10-30T13:53:09.222Z,948.7
2017-10-30T13:54:17.366Z,948.8
2017-10-30T13:55:25.516Z,948.8
2017-10-30T13:56:33.557Z,948.8
2017-10-30T13:57:41.579Z,948.8
2017-10-30T13:58:49.659Z,948.7
2017-10-30T13:59:57.793Z,948.8
2017-10-30T14:01:05.890Z,948.8
2017-10-30T14:02:13.921Z,948.8
2017-10-30T14:03:22.009Z,948.8
2017-10-30T14:04:30.250Z,948.8
2017-10-30T14:05:38.262Z,948.8
2017-10-30T14:06:46.359Z,948.7
2017-10-30T14:07:54.394Z,948.8
2017-10-30T14:09:02.445Z,948.7
2017-10-30T14:10:10.849Z,948.7
2017-10-30T14:11:18.619Z,948.8
2017-10-30T14:12:26.763Z,948.8
2017-10-30T14:13:34.794Z,948.8
2017-10-30T14:14:42.880Z,948.8
2017-10-30T14:15:50.966Z,948.8
2017-10-30T14:16:59.068Z,948.9
2017-10-30T14:18:07.201Z,948.9
2017-10-30T14:19:15.328Z,948.9
2017-10-30T14:20:23.316Z,948.9
2017-10-30T14:21:31.412Z,948.9
2017-10-30T14:22:39.490Z,948.9
2017-10-30T14:23:47.633Z,948.9
2017-10-30T14:24:55.663Z,948.9
2017-10-30T14:26:03.808Z,948.9
2017-10-30T14:27:11.842Z,949.0
2017-10-30T14:28:19.929Z,949.0
2017-10-30T14:29:28.236Z,949.0
2017-10-30T14:30:36.108Z,948.9
2017-10-30T14:31:44.190Z,948.9
2017-10-30T14:32:52.276Z,948.9
2017-10-30T14:34:00.364Z,948.9
2017-10-30T14:35:08.510Z,948.9
2017-10-30T14:36:16.535Z,948.9